createdAt,value
2019-03-30T00:01:36.489Z,13.60
2019-03-30T00:04:08.036Z,13.60
2019-03-30T00:06:39.331Z,13.50
2019-03-30T00:09:10.982Z,13.50
2019-03-30T00:11:42.305Z,13.60
2019-03-30T00:14:13.497Z,13.60
2019-03-30T00:16:44.949Z,13.60
2019-03-30T00:19:16.202Z,13.80
2019-03-30T00:21:47.491Z,13.80
2019-03-30T00:24:18.998Z,13.80
2019-03-30T00:26:50.402Z,13.90
2019-03-30T00:29:21.698Z,13.90
2019-03-30T00:31:53.110Z,13.90
2019-03-30T00:34:24.344Z,13.70
2019-03-30T00:36:55.926Z,13.60
2019-03-30T00:39:27.428Z,13.50
2019-03-30T00:41:58.788Z,13.40
2019-03-30T00:44:30.019Z,13.40
2019-03-30T00:47:01.260Z,13.40
2019-03-30T00:49:32.471Z,13.40
2019-03-30T00:52:03.678Z,13.40
2019-03-30T00:54:34.859Z,13.30
2019-03-30T00:57:06.175Z,13.20
2019-03-30T00:59:37.352Z,13.10
2019-03-30T01:02:08.474Z,13.00
2019-03-30T01:04:39.926Z,13.00
2019-03-30T01:07:11.173Z,13.00
2019-03-30T01:09:42.546Z,13.00
2019-03-30T01:12:13.994Z,13.00
2019-03-30T01:14:45.299Z,12.90
2019-03-30T01:17:20.712Z,12.90
2019-03-30T01:20:02.256Z,12.90
2019-03-30T01:22:24.889Z,12.90
2019-03-30T01:24:57.107Z,12.80
2019-03-30T01:27:28.417Z,12.80
2019-03-30T01:29:59.617Z,12.80
2019-03-30T01:32:30.959Z,12.70
2019-03-30T01:35:02.277Z,12.70
2019-03-30T01:37:33.387Z,12.60
2019-03-30T01:40:05.967Z,12.60
2019-03-30T01:42:37.616Z,12.60
2019-03-30T01:45:10.128Z,12.60
2019-03-30T01:47:41.265Z,12.50
2019-03-30T01:50:17.641Z,12.50
2019-03-30T01:52:47.233Z,12.60
2019-03-30T01:55:18.633Z,12.50
2019-03-30T01:57:50.033Z,12.50
2019-03-30T02:00:21.698Z,12.50
2019-03-30T02:02:52.870Z,12.50
2019-03-30T02:05:24.294Z,12.40
2019-03-30T02:07:55.739Z,12.40
2019-03-30T02:10:42.735Z,12.40
2019-03-30T02:13:13.902Z,12.40
2019-03-30T02:15:45.276Z,12.50
2019-03-30T02:18:16.585Z,12.60
2019-03-30T02:20:57.396Z,12.60
2019-03-30T02:23:28.544Z,12.60
2019-03-30T02:26:00.072Z,12.60
2019-03-30T02:28:31.328Z,12.60
2019-03-30T02:31:02.603Z,12.60
2019-03-30T02:33:33.768Z,12.60
2019-03-30T02:36:05.128Z,12.60
2019-03-30T02:38:36.331Z,12.50
2019-03-30T02:41:07.759Z,12.40
2019-03-30T02:43:39.073Z,12.20
2019-03-30T02:46:10.379Z,12.10
2019-03-30T02:48:42.587Z,12.10
2019-03-30T02:51:13.772Z,12.10
2019-03-30T02:53:45.068Z,12.10
2019-03-30T02:56:16.339Z,12.10
2019-03-30T02:58:47.692Z,12.10
2019-03-30T03:01:18.870Z,12.10
2019-03-30T03:03:50.076Z,12.20
2019-03-30T03:06:21.413Z,12.20
2019-03-30T03:08:52.554Z,12.20
2019-03-30T03:11:24.008Z,12.20
2019-03-30T03:13:55.189Z,12.10
2019-03-30T03:16:27.591Z,12.00
2019-03-30T03:18:58.935Z,12.00
2019-03-30T03:21:30.144Z,12.00
2019-03-30T03:24:01.307Z,12.00
2019-03-30T03:26:32.575Z,11.90
2019-03-30T03:29:04.198Z,12.00
2019-03-30T03:31:35.606Z,12.00
2019-03-30T03:34:06.826Z,12.00
2019-03-30T03:36:38.214Z,12.00
2019-03-30T03:39:09.460Z,12.00
2019-03-30T03:41:40.665Z,11.90
2019-03-30T03:44:12.011Z,11.90
2019-03-30T03:46:43.419Z,11.80
2019-03-30T03:49:14.574Z,11.90
2019-03-30T03:51:45.919Z,11.90
2019-03-30T03:54:17.736Z,11.90
2019-03-30T03:56:49.431Z,11.80
2019-03-30T03:59:23.305Z,11.90
2019-03-30T04:01:56.555Z,11.90
2019-03-30T04:04:30.578Z,11.90
2019-03-30T04:07:03.098Z,11.90
2019-03-30T04:09:36.719Z,11.90
2019-03-30T04:12:11.331Z,11.90
2019-03-30T04:14:46.173Z,11.80
2019-03-30T04:17:17.450Z,11.80
2019-03-30T04:19:48.597Z,11.90
2019-03-30T04:22:19.905Z,12.00
2019-03-30T04:24:51.067Z,11.90
2019-03-30T04:27:22.452Z,11.80
2019-03-30T04:29:53.708Z,11.80
2019-03-30T04:32:24.903Z,11.70
2019-03-30T04:34:56.058Z,11.60
2019-03-30T04:37:27.401Z,11.60
2019-03-30T04:39:59.655Z,11.70
2019-03-30T04:42:30.839Z,11.60
2019-03-30T04:45:02.086Z,11.50
2019-03-30T04:47:33.351Z,12.50
2019-03-30T04:50:04.741Z,11.50
2019-03-30T04:52:36.014Z,11.50
2019-03-30T04:55:07.315Z,11.50
2019-03-30T04:57:38.542Z,11.50
2019-03-30T05:00:09.922Z,11.40
2019-03-30T05:02:41.115Z,11.30
2019-03-30T05:05:12.431Z,11.30
2019-03-30T05:07:44.146Z,11.40
2019-03-30T05:10:15.552Z,11.40
2019-03-30T05:12:50.159Z,11.40
2019-03-30T05:15:21.460Z,11.30
2019-03-30T05:17:52.651Z,11.30
2019-03-30T05:20:24.054Z,11.30
2019-03-30T05:22:55.301Z,11.30
2019-03-30T05:25:28.038Z,11.20
2019-03-30T05:27:59.318Z,11.30
2019-03-30T05:30:30.461Z,11.30
2019-03-30T05:33:06.085Z,11.30
2019-03-30T05:35:34.813Z,11.30
2019-03-30T05:38:06.049Z,11.20
2019-03-30T05:40:37.189Z,11.20
2019-03-30T05:43:08.327Z,11.30
2019-03-30T05:45:39.578Z,11.20
2019-03-30T05:48:10.921Z,11.20
2019-03-30T05:50:42.142Z,11.20
2019-03-30T05:53:13.620Z,11.10
2019-03-30T05:55:44.742Z,11.20
2019-03-30T05:58:15.912Z,11.10
2019-03-30T06:00:47.102Z,11.20
2019-03-30T06:03:18.316Z,11.20
2019-03-30T06:05:49.503Z,11.20
2019-03-30T06:08:20.744Z,11.20
2019-03-30T06:10:51.981Z,11.20
2019-03-30T06:13:23.248Z,11.10
2019-03-30T06:15:54.521Z,11.10
2019-03-30T06:18:25.715Z,11.20
2019-03-30T06:20:56.875Z,11.20
2019-03-30T06:23:28.073Z,11.20
2019-03-30T06:25:59.177Z,11.30
2019-03-30T06:28:30.356Z,11.30
2019-03-30T06:31:01.523Z,11.30
2019-03-30T06:33:38.984Z,11.40
2019-03-30T06:36:10.849Z,11.40
2019-03-30T06:38:42.629Z,11.40
2019-03-30T06:41:13.748Z,11.30
2019-03-30T06:43:45.040Z,11.40
2019-03-30T06:46:16.293Z,11.40
2019-03-30T06:48:47.519Z,11.50
2019-03-30T06:51:19.845Z,11.60
2019-03-30T06:53:51.058Z,11.80
2019-03-30T06:56:22.343Z,11.80
2019-03-30T06:58:54.537Z,12.00
2019-03-30T07:01:32.380Z,12.00
2019-03-30T07:04:11.120Z,12.00
2019-03-30T07:06:41.744Z,12.10
2019-03-30T07:09:14.169Z,12.20
2019-03-30T07:11:47.460Z,12.10
2019-03-30T07:14:18.835Z,12.20
2019-03-30T07:16:52.638Z,12.40
2019-03-30T07:19:27.057Z,13.00
2019-03-30T07:21:58.386Z,13.60
2019-03-30T07:24:29.740Z,13.60
2019-03-30T07:27:00.928Z,13.80
2019-03-30T07:29:32.128Z,13.70
2019-03-30T07:32:03.636Z,13.50
2019-03-30T07:34:34.826Z,13.40
2019-03-30T07:37:06.023Z,13.60
2019-03-30T07:39:37.424Z,13.50
2019-03-30T07:42:08.837Z,13.70
2019-03-30T07:44:40.348Z,13.50
2019-03-30T07:47:11.692Z,13.50
2019-03-30T07:49:43.026Z,13.60
2019-03-30T07:52:14.791Z,13.60
2019-03-30T07:54:46.215Z,13.50
2019-03-30T07:57:17.632Z,13.60
2019-03-30T07:59:49.970Z,13.80
2019-03-30T08:02:21.306Z,15.10
2019-03-30T08:04:57.918Z,17.40
2019-03-30T08:07:29.421Z,18.80
2019-03-30T08:10:00.669Z,19.50
2019-03-30T08:12:31.860Z,21.20
2019-03-30T08:15:07.157Z,21.40
2019-03-30T08:17:38.824Z,21.70
2019-03-30T08:20:11.281Z,21.50
2019-03-30T08:22:42.453Z,21.10
2019-03-30T08:25:15.074Z,21.30
2019-03-30T08:27:46.644Z,21.20
2019-03-30T08:30:18.026Z,22.70
2019-03-30T08:32:49.210Z,22.90
2019-03-30T08:35:20.471Z,22.20
2019-03-30T08:37:51.782Z,22.00
2019-03-30T08:40:23.287Z,21.70
2019-03-30T08:42:54.795Z,19.70
2019-03-30T08:45:26.274Z,18.90
2019-03-30T08:47:57.453Z,18.80
2019-03-30T08:50:28.831Z,18.60
2019-03-30T08:53:00.255Z,18.50
2019-03-30T08:55:31.695Z,18.10
2019-03-30T08:58:02.999Z,18.00
2019-03-30T09:00:41.798Z,17.80
2019-03-30T09:03:13.458Z,17.40
2019-03-30T09:05:44.735Z,17.60
2019-03-30T09:08:15.989Z,17.60
2019-03-30T09:10:47.271Z,17.40
2019-03-30T09:13:18.538Z,17.10
2019-03-30T09:15:49.881Z,17.30
2019-03-30T09:18:21.068Z,17.00
2019-03-30T09:20:52.485Z,17.00
2019-03-30T09:23:23.736Z,16.90
2019-03-30T09:25:56.062Z,16.80
2019-03-30T09:28:27.188Z,17.00
2019-03-30T09:31:05.106Z,16.80
2019-03-30T09:33:36.738Z,17.00
2019-03-30T09:36:08.271Z,17.10
2019-03-30T09:38:39.535Z,16.80
2019-03-30T09:41:10.881Z,16.70
2019-03-30T09:43:42.485Z,16.80
2019-03-30T09:46:13.852Z,16.90
2019-03-30T09:48:45.230Z,17.30
2019-03-30T09:51:16.809Z,17.10
2019-03-30T09:53:48.025Z,17.10
2019-03-30T09:56:19.382Z,17.00
2019-03-30T09:58:51.032Z,16.90
2019-03-30T10:01:22.353Z,16.60
2019-03-30T10:03:53.783Z,16.60
2019-03-30T10:06:33.918Z,16.70
2019-03-30T10:08:59.018Z,17.10
2019-03-30T10:11:30.426Z,16.20
2019-03-30T10:14:02.204Z,16.20
2019-03-30T10:16:33.682Z,16.60
2019-03-30T10:19:05.089Z,16.30
2019-03-30T10:21:36.342Z,16.30
2019-03-30T10:24:07.551Z,16.50
2019-03-30T10:26:39.046Z,16.60
2019-03-30T10:29:10.423Z,16.70
2019-03-30T10:31:41.754Z,16.80
2019-03-30T10:34:13.121Z,16.80
2019-03-30T10:36:44.577Z,16.70
2019-03-30T10:39:15.841Z,16.50
2019-03-30T10:41:47.169Z,16.50
2019-03-30T10:44:18.509Z,16.50
2019-03-30T10:46:50.882Z,16.40
2019-03-30T10:49:22.213Z,16.50
2019-03-30T10:51:54.449Z,16.50
2019-03-30T10:54:27.341Z,16.60
2019-03-30T10:56:59.273Z,16.70
2019-03-30T10:59:30.863Z,16.70
2019-03-30T11:02:02.455Z,16.80
2019-03-30T11:04:33.949Z,16.50
2019-03-30T11:07:05.335Z,16.70
2019-03-30T11:09:36.624Z,17.00
2019-03-30T11:12:08.635Z,16.90
2019-03-30T11:14:40.885Z,16.70
2019-03-30T11:17:19.232Z,16.70
2019-03-30T11:19:49.879Z,16.60
2019-03-30T11:22:21.705Z,16.70
2019-03-30T11:25:06.514Z,17.20
2019-03-30T11:27:26.141Z,17.40
2019-03-30T11:29:57.566Z,17.40
2019-03-30T11:32:30.112Z,17.10
2019-03-30T11:35:01.510Z,17.20
2019-03-30T11:37:32.885Z,17.40
2019-03-30T11:40:04.527Z,17.50
2019-03-30T11:42:36.183Z,17.60
2019-03-30T11:45:07.767Z,17.80
2019-03-30T11:47:39.189Z,19.60
2019-03-30T11:50:10.478Z,21.40
2019-03-30T11:52:42.003Z,22.20
2019-03-30T11:55:21.613Z,22.70
2019-03-30T11:57:48.750Z,23.60
2019-03-30T12:00:21.243Z,23.10
2019-03-30T12:02:52.616Z,23.20
2019-03-30T12:05:23.925Z,23.10
2019-03-30T12:07:55.369Z,23.30
2019-03-30T12:10:26.774Z,23.50
2019-03-30T12:12:58.094Z,23.40
2019-03-30T12:15:29.903Z,23.20
2019-03-30T12:18:01.306Z,23.10
2019-03-30T12:20:32.807Z,23.60
2019-03-30T12:23:04.313Z,23.30
2019-03-30T12:25:36.322Z,23.30
2019-03-30T12:28:07.738Z,23.70
2019-03-30T12:30:39.020Z,23.70
2019-03-30T12:33:10.427Z,22.70
2019-03-30T12:35:42.362Z,23.20
2019-03-30T12:38:13.889Z,23.40
2019-03-30T12:40:45.469Z,23.10
2019-03-30T12:43:16.767Z,23.10
2019-03-30T12:45:48.174Z,23.00
2019-03-30T12:48:19.484Z,22.80
2019-03-30T12:50:50.849Z,21.10
2019-03-30T12:53:22.247Z,19.90
2019-03-30T12:55:53.543Z,20.20
2019-03-30T12:58:25.032Z,19.80
2019-03-30T13:00:56.326Z,19.30
2019-03-30T13:03:27.736Z,19.90
2019-03-30T13:05:59.742Z,21.00
2019-03-30T13:08:31.013Z,22.30
2019-03-30T13:11:02.330Z,22.10
2019-03-30T13:13:33.924Z,22.00
2019-03-30T13:16:05.376Z,21.90
2019-03-30T13:18:36.763Z,21.40
2019-03-30T13:21:16.659Z,20.80
2019-03-30T13:23:48.105Z,19.50
2019-03-30T13:26:19.286Z,18.00
2019-03-30T13:28:50.820Z,17.70
2019-03-30T13:31:22.117Z,17.50
2019-03-30T13:33:53.391Z,17.70
2019-03-30T13:36:42.177Z,17.90
2019-03-30T13:39:13.959Z,17.80
2019-03-30T13:41:54.738Z,17.90
2019-03-30T13:44:26.847Z,17.90
2019-03-30T13:46:58.293Z,17.60
2019-03-30T13:49:29.957Z,17.70
2019-03-30T13:52:01.217Z,18.00
2019-03-30T13:54:32.605Z,18.50
2019-03-30T13:57:03.958Z,19.00
2019-03-30T13:59:35.315Z,19.00
2019-03-30T14:02:06.549Z,18.10
2019-03-30T14:04:38.204Z,17.40
2019-03-30T14:07:09.505Z,17.00
2019-03-30T14:09:41.353Z,16.70
2019-03-30T14:12:12.739Z,16.50
2019-03-30T14:14:44.063Z,16.20
2019-03-30T14:17:15.285Z,16.10
2019-03-30T14:19:50.102Z,16.10
2019-03-30T14:22:21.320Z,16.00
2019-03-30T14:24:52.577Z,16.10
2019-03-30T14:27:23.792Z,16.10
2019-03-30T14:29:55.052Z,16.30
2019-03-30T14:32:26.257Z,16.30
2019-03-30T14:34:57.505Z,16.30
2019-03-30T14:37:28.702Z,16.40
2019-03-30T14:40:00.049Z,16.30
2019-03-30T14:42:31.471Z,16.20
2019-03-30T14:45:03.476Z,16.20
2019-03-30T14:47:34.796Z,16.30
2019-03-30T14:50:06.600Z,16.30
2019-03-30T14:52:38.000Z,16.20
2019-03-30T14:55:09.709Z,15.90
2019-03-30T14:57:41.076Z,15.60
2019-03-30T15:00:12.611Z,15.40
2019-03-30T15:02:44.010Z,15.50
2019-03-30T15:05:16.166Z,15.30
2019-03-30T15:07:47.453Z,15.50
2019-03-30T15:10:18.708Z,15.70
2019-03-30T15:12:50.112Z,15.70
2019-03-30T15:15:21.356Z,15.70
2019-03-30T15:17:52.642Z,15.80
2019-03-30T15:20:23.958Z,15.60
2019-03-30T15:22:55.164Z,15.40
2019-03-30T15:25:26.420Z,15.50
2019-03-30T15:27:57.740Z,15.70
2019-03-30T15:30:28.962Z,15.60
2019-03-30T15:33:03.278Z,15.50
2019-03-30T15:35:33.118Z,15.40
2019-03-30T15:38:04.341Z,15.60
2019-03-30T15:40:35.749Z,15.60
2019-03-30T15:43:06.920Z,15.40
2019-03-30T15:45:38.220Z,15.30
2019-03-30T15:48:09.658Z,15.30
2019-03-30T15:50:41.123Z,15.30
2019-03-30T15:53:12.501Z,15.30
2019-03-30T15:55:43.891Z,15.30
2019-03-30T15:58:15.284Z,15.30
2019-03-30T16:00:46.668Z,15.10
2019-03-30T16:03:18.307Z,14.90
2019-03-30T16:05:49.627Z,14.90
2019-03-30T16:08:22.138Z,14.90
2019-03-30T16:10:53.639Z,14.80
2019-03-30T16:13:24.838Z,14.90
2019-03-30T16:15:56.297Z,14.80
2019-03-30T16:18:27.642Z,14.70
2019-03-30T16:20:58.878Z,14.60
2019-03-30T16:23:30.368Z,14.70
2019-03-30T16:26:01.763Z,14.50
2019-03-30T16:32:18.416Z,14.50
2019-03-30T16:34:49.561Z,15.70
2019-03-30T16:37:20.970Z,14.60
2019-03-30T16:39:54.123Z,14.50
2019-03-30T16:42:25.403Z,14.50
2019-03-30T16:44:57.140Z,14.50
2019-03-30T16:47:28.444Z,14.50
2019-03-30T16:50:00.471Z,14.50
2019-03-30T16:52:31.859Z,14.40
2019-03-30T16:55:03.124Z,14.20
2019-03-30T16:57:43.031Z,14.30
2019-03-30T17:00:08.338Z,14.30
2019-03-30T17:02:40.737Z,14.30
2019-03-30T17:05:12.453Z,14.30
2019-03-30T17:07:43.677Z,14.30
2019-03-30T17:10:15.159Z,14.30
2019-03-30T17:12:48.755Z,14.20
2019-03-30T17:15:20.434Z,14.20
2019-03-30T17:17:51.728Z,14.30
2019-03-30T17:20:22.933Z,14.20
2019-03-30T17:22:58.978Z,14.20
2019-03-30T17:25:30.482Z,14.30
2019-03-30T17:28:01.885Z,14.20
2019-03-30T17:30:33.157Z,14.10
2019-03-30T17:33:04.619Z,14.10
2019-03-30T17:35:35.896Z,14.10
2019-03-30T17:38:07.311Z,14.00
2019-03-30T17:40:38.573Z,14.00
2019-03-30T17:43:10.035Z,14.00
2019-03-30T17:45:41.898Z,14.10
2019-03-30T17:48:13.238Z,14.00
2019-03-30T17:50:44.537Z,14.00
2019-03-30T17:53:16.021Z,14.00
2019-03-30T17:55:47.403Z,14.00
2019-03-30T17:58:18.703Z,14.00
2019-03-30T18:00:50.343Z,14.00
2019-03-30T18:03:21.703Z,14.00
2019-03-30T18:05:52.984Z,13.90
2019-03-30T18:08:24.360Z,13.90
2019-03-30T18:10:55.737Z,13.90
2019-03-30T18:13:27.019Z,14.00
2019-03-30T18:15:58.307Z,13.90
2019-03-30T18:18:30.518Z,13.90
2019-03-30T18:21:16.875Z,14.00
2019-03-30T18:23:55.349Z,13.90
2019-03-30T18:26:26.961Z,13.90
2019-03-30T18:28:58.195Z,13.90
2019-03-30T18:31:29.623Z,13.90
2019-03-30T18:34:01.044Z,13.90
2019-03-30T18:36:33.285Z,13.80
2019-03-30T18:39:09.883Z,13.90
2019-03-30T18:41:38.487Z,13.90
2019-03-30T18:44:10.300Z,13.80
2019-03-30T18:46:41.728Z,13.80
2019-03-30T18:49:13.183Z,13.80
2019-03-30T18:51:46.815Z,13.80
2019-03-30T18:54:19.155Z,13.80
2019-03-30T18:56:56.458Z,13.90
2019-03-30T18:59:28.026Z,13.90
2019-03-30T19:01:59.752Z,13.80
2019-03-30T19:04:31.373Z,13.70
2019-03-30T19:07:02.660Z,13.80
2019-03-30T19:09:33.962Z,13.80
2019-03-30T19:12:05.576Z,13.80
2019-03-30T19:14:37.217Z,13.80
2019-03-30T19:17:08.526Z,13.70
2019-03-30T19:19:39.810Z,13.70
2019-03-30T19:22:12.108Z,13.70
2019-03-30T19:24:43.501Z,13.70
2019-03-30T19:27:14.799Z,13.60
2019-03-30T19:29:46.087Z,13.60
2019-03-30T19:32:17.464Z,13.60
2019-03-30T19:34:48.820Z,13.60
2019-03-30T19:37:20.036Z,13.60
2019-03-30T19:39:51.515Z,13.70
2019-03-30T19:42:22.702Z,13.70
2019-03-30T19:44:54.060Z,13.70
2019-03-30T19:47:25.318Z,13.80
2019-03-30T19:49:56.621Z,13.80
2019-03-30T19:52:39.305Z,13.80
2019-03-30T19:55:01.547Z,13.70
2019-03-30T19:57:33.407Z,13.80
2019-03-30T20:00:05.530Z,13.70
2019-03-30T20:02:36.933Z,13.70
2019-03-30T20:05:09.712Z,13.70
2019-03-30T20:07:41.374Z,13.70
2019-03-30T20:10:13.197Z,13.60
2019-03-30T20:12:44.440Z,13.70
2019-03-30T20:15:16.002Z,13.70
2019-03-30T20:17:47.256Z,13.70
2019-03-30T20:20:18.731Z,13.70
2019-03-30T20:22:50.690Z,13.70
2019-03-30T20:25:27.029Z,13.70
2019-03-30T20:27:58.316Z,13.80
2019-03-30T20:30:30.224Z,13.80
2019-03-30T20:33:03.346Z,13.80
2019-03-30T20:35:34.728Z,13.80
2019-03-30T20:38:06.931Z,13.70
2019-03-30T20:40:39.785Z,13.70
2019-03-30T20:43:11.400Z,13.80
2019-03-30T20:45:43.400Z,13.80
2019-03-30T20:48:14.699Z,13.80
2019-03-30T20:50:46.032Z,13.80
2019-03-30T20:53:17.504Z,13.70
2019-03-30T20:55:49.091Z,13.70
2019-03-30T20:58:20.303Z,13.70
2019-03-30T21:00:51.706Z,13.80
2019-03-30T21:03:23.055Z,13.80
2019-03-30T21:05:54.472Z,13.80
2019-03-30T21:08:25.790Z,13.80
2019-03-30T21:10:57.085Z,13.80
2019-03-30T21:13:28.462Z,15.00
2019-03-30T21:15:59.896Z,13.70
2019-03-30T21:18:31.081Z,13.80
2019-03-30T21:21:02.608Z,13.70
2019-03-30T21:23:34.134Z,13.70
2019-03-30T21:26:05.528Z,13.70
2019-03-30T21:28:36.782Z,13.70
2019-03-30T21:31:07.983Z,13.70
2019-03-30T21:33:39.372Z,13.70
2019-03-30T21:36:10.629Z,13.70
2019-03-30T21:38:41.820Z,13.70
2019-03-30T21:41:13.107Z,13.80
2019-03-30T21:43:46.125Z,13.60
2019-03-30T21:46:17.369Z,13.70
2019-03-30T21:48:48.691Z,13.80
2019-03-30T21:51:21.163Z,13.80
2019-03-30T21:53:52.721Z,13.80
2019-03-30T21:56:24.003Z,13.80
2019-03-30T21:58:55.501Z,14.80
2019-03-30T22:01:26.904Z,13.90
2019-03-30T22:03:58.080Z,13.80
2019-03-30T22:06:29.382Z,13.80
2019-03-30T22:09:01.878Z,13.90
2019-03-30T22:11:35.316Z,14.00
2019-03-30T22:14:06.706Z,13.90
2019-03-30T22:16:39.856Z,15.60
2019-03-30T22:19:11.077Z,13.80
2019-03-30T22:21:42.344Z,13.90
2019-03-30T22:24:13.805Z,13.90
2019-03-30T22:26:45.166Z,14.00
2019-03-30T22:29:16.456Z,14.00
2019-03-30T22:31:47.915Z,14.00
2019-03-30T22:34:20.238Z,14.00
2019-03-30T22:36:51.618Z,14.00
2019-03-30T22:39:22.861Z,14.00
2019-03-30T22:41:54.577Z,14.00
2019-03-30T22:44:26.144Z,14.00
2019-03-30T22:46:57.576Z,14.00
2019-03-30T22:49:28.907Z,13.90
2019-03-30T22:52:00.305Z,13.90
2019-03-30T22:54:31.581Z,14.00
2019-03-30T22:57:02.886Z,14.00
2019-03-30T22:59:34.352Z,13.90
2019-03-30T23:02:05.917Z,13.80
2019-03-30T23:04:37.813Z,13.80
2019-03-30T23:07:10.149Z,13.70
2019-03-30T23:09:42.140Z,13.60
2019-03-30T23:12:14.347Z,13.50
2019-03-30T23:14:45.813Z,13.50
2019-03-30T23:17:17.860Z,13.60
2019-03-30T23:19:49.267Z,13.50
2019-03-30T23:22:20.556Z,13.40
2019-03-30T23:24:51.800Z,13.40
2019-03-30T23:27:26.346Z,13.40
2019-03-30T23:29:57.694Z,13.30
2019-03-30T23:32:29.005Z,13.10
2019-03-30T23:35:00.668Z,13.10
2019-03-30T23:37:32.012Z,13.10
2019-03-30T23:40:06.124Z,13.10
2019-03-30T23:42:37.420Z,13.00
2019-03-30T23:45:09.170Z,13.00
2019-03-30T23:47:40.540Z,13.10
2019-03-30T23:50:11.856Z,13.00
2019-03-30T23:52:44.189Z,13.00
2019-03-30T23:55:15.526Z,13.00
2019-03-30T23:57:47.005Z,12.90
